Time;durP1;ratioP1;P1;durP2;ratioP2;P2;SDS_P1;SDS_P2;PMS_P1;PMS_P2;Temp;Humidity;BMP_temperature;BMP_pressure;BME280_temperature;BME280_humidity;BME280_pressure;Samples;Min_cycle;Max_cycle;Signal;HPM_P1;HPM_P2
2022/07/04 00:00:08;;;;;;;3.60;1.48;;;;;;;;;;5014342;28;20121;-77
2022/07/04 00:02:34;;;;;;;2.38;1.30;;;;;;;;;;5014656;28;20029;-76
2022/07/04 00:04:59;;;;;;;3.33;1.35;;;;;;;;;;4997562;28;20037;-77
2022/07/04 00:07:25;;;;;;;2.10;1.30;;;;;;;;;;5014451;28;20366;-77
2022/07/04 00:09:50;;;;;;;2.08;1.27;;;;;;;;;;5014286;28;20022;-76
2022/07/04 00:12:16;;;;;;;2.58;1.30;;;;;;;;;;5014114;28;20034;-77
2022/07/04 00:14:41;;;;;;;1.58;1.20;;;;;;;;;;4998101;28;20140;-76
2022/07/04 00:17:06;;;;;;;1.35;1.13;;;;;;;;;;4997862;28;20037;-77
2022/07/04 00:19:32;;;;;;;2.47;1.73;;;;;;;;;;5014232;28;20492;-77
2022/07/04 00:21:57;;;;;;;2.50;1.40;;;;;;;;;;5014297;28;20116;-76
2022/07/04 00:24:23;;;;;;;2.55;1.20;;;;;;;;;;5015115;28;20034;-76
2022/07/04 00:26:48;;;;;;;3.53;1.30;;;;;;;;;;5015351;28;20029;-77
2022/07/04 00:29:14;;;;;;;1.98;1.10;;;;;;;;;;4981199;28;20053;-77
2022/07/04 00:31:40;;;;;;;2.55;1.25;;;;;;;;;;4998147;28;20029;-76
2022/07/04 00:34:05;;;;;;;2.83;1.17;;;;;;;;;;5014698;28;20033;-76
2022/07/04 00:36:31;;;;;;;1.90;1.33;;;;;;;;;;5014780;28;20037;-77
2022/07/04 00:38:56;;;;;;;2.28;1.25;;;;;;;;;;5013507;28;20022;-76
2022/07/04 00:41:22;;;;;;;1.17;1.02;;;;;;;;;;5013707;28;20173;-77
2022/07/04 00:44:04;;;;;;;1.33;1.13;;;;;;;;;;5013435;28;20044;-77
2022/07/04 00:46:29;;;;;;;2.13;1.00;;;;;;;;;;5014758;28;20030;-77
2022/07/04 00:48:55;;;;;;;1.67;1.00;;;;;;;;;;5014392;28;20057;-77
2022/07/04 00:51:20;;;;;;;1.95;1.40;;;;;;;;;;5013428;28;20499;-76
2022/07/04 00:53:46;;;;;;;2.47;1.40;;;;;;;;;;5014427;28;20026;-76
2022/07/04 00:56:11;;;;;;;3.13;1.17;;;;;;;;;;5014517;28;20041;-76
2022/07/04 00:58:37;;;;;;;2.13;1.10;;;;;;;;;;5014266;28;20416;-77
2022/07/04 01:01:02;;;;;;;1.63;1.40;;;;;;;;;;5013302;28;20057;-77
2022/07/04 01:03:27;;;;;;;1.60;1.10;;;;;;;;;;5013422;28;20484;-77
2022/07/04 01:05:53;;;;;;;3.35;1.20;;;;;;;;;;5013128;28;20041;-77
2022/07/04 01:08:18;;;;;;;3.30;1.50;;;;;;;;;;5013008;28;20450;-77
2022/07/04 01:10:44;;;;;;;2.35;1.10;;;;;;;;;;5014151;28;20476;-77
2022/07/04 01:13:22;;;;;;;3.97;1.20;;;;;;;;;;5015049;28;20050;-76
2022/07/04 01:15:48;;;;;;;2.63;1.20;;;;;;;;;;5013635;28;20397;-77
2022/07/04 01:18:14;;;;;;;2.47;1.50;;;;;;;;;;5013386;28;20401;-76
2022/07/04 01:20:39;;;;;;;2.33;1.30;;;;;;;;;;5013316;28;20065;-76
2022/07/04 01:23:04;;;;;;;2.88;1.10;;;;;;;;;;5014125;28;20033;-77
2022/07/04 01:25:30;;;;;;;2.40;1.15;;;;;;;;;;5014533;28;20026;-77
2022/07/04 01:27:57;;;;;;;1.52;1.00;;;;;;;;;;5012969;28;20041;-77
2022/07/04 01:30:23;;;;;;;2.13;1.20;;;;;;;;;;5013049;28;20025;-77
2022/07/04 01:32:48;;;;;;;1.55;1.00;;;;;;;;;;5013794;28;20099;-76
2022/07/04 01:35:13;;;;;;;1.88;1.30;;;;;;;;;;4996321;28;20049;-77
2022/07/04 01:37:39;;;;;;;2.25;1.10;;;;;;;;;;5014036;28;20430;-77
2022/07/04 01:40:05;;;;;;;2.08;0.95;;;;;;;;;;5013962;28;20026;-77
2022/07/04 01:42:30;;;;;;;2.20;0.90;;;;;;;;;;5013609;28;20034;-77
2022/07/04 01:44:56;;;;;;;3.20;1.20;;;;;;;;;;5012667;28;20468;-77
2022/07/04 01:47:21;;;;;;;2.25;1.10;;;;;;;;;;5013665;28;20408;-76
2022/07/04 01:49:46;;;;;;;1.73;1.30;;;;;;;;;;5014069;28;20061;-76
2022/07/04 01:52:13;;;;;;;2.70;1.50;;;;;;;;;;5012609;28;20447;-76
2022/07/04 01:54:38;;;;;;;1.95;1.30;;;;;;;;;;5014036;28;20104;-77
2022/07/04 01:57:04;;;;;;;3.58;1.17;;;;;;;;;;4996163;28;20072;-77
2022/07/04 02:02:13;;;;;;;;;;;;;;;;;;5013130;28;20037;-77
2022/07/04 02:04:38;;;;;;;1.90;1.20;;;;;;;;;;5013638;28;19917;-77
2022/07/04 02:07:04;;;;;;;2.30;1.23;;;;;;;;;;5012518;28;20040;-77
2022/07/04 02:09:30;;;;;;;2.70;1.30;;;;;;;;;;5013483;28;20469;-77
2022/07/04 02:14:41;;;;;;;;;;;;;;;;;;5012647;28;20037;-77
2022/07/04 02:17:07;;;;;;;3.85;1.42;;;;;;;;;;5013260;28;19920;-77
2022/07/04 02:19:32;;;;;;;2.60;1.27;;;;;;;;;;5011946;28;20026;-77
2022/07/04 02:21:57;;;;;;;1.40;1.10;;;;;;;;;;5011995;28;20029;-77
2022/07/04 02:24:23;;;;;;;2.53;1.45;;;;;;;;;;5011995;28;20109;-77
2022/07/04 02:26:48;;;;;;;2.28;1.50;;;;;;;;;;5013392;28;20038;-77
2022/07/04 02:29:14;;;;;;;4.25;1.35;;;;;;;;;;5015863;28;20053;-77
2022/07/04 02:31:39;;;;;;;2.83;1.60;;;;;;;;;;5016310;28;20029;-77
2022/07/04 02:34:05;;;;;;;2.10;1.40;;;;;;;;;;5017198;28;20030;-77
2022/07/04 02:36:30;;;;;;;2.58;1.50;;;;;;;;;;5017129;28;20025;-77
2022/07/04 02:38:55;;;;;;;2.35;1.20;;;;;;;;;;5017307;28;20030;-77
2022/07/04 02:41:21;;;;;;;4.55;1.70;;;;;;;;;;5015740;28;20491;-77
2022/07/04 02:43:46;;;;;;;1.40;1.30;;;;;;;;;;5017272;28;20033;-77
2022/07/04 02:46:11;;;;;;;3.05;1.40;;;;;;;;;;5017162;28;20124;-77
2022/07/04 02:48:37;;;;;;;3.55;1.30;;;;;;;;;;4999144;28;20140;-77
2022/07/04 02:51:02;;;;;;;2.35;1.30;;;;;;;;;;5017132;28;20383;-77
2022/07/04 02:53:28;;;;;;;5.25;1.40;;;;;;;;;;5017048;28;20038;-77
2022/07/04 02:55:53;;;;;;;1.73;1.30;;;;;;;;;;4999383;28;20037;-76
2022/07/04 02:58:18;;;;;;;4.07;1.20;;;;;;;;;;5016719;28;20042;-77
2022/07/04 03:00:44;;;;;;;3.22;1.40;;;;;;;;;;5016567;28;20053;-77
2022/07/04 03:03:09;;;;;;;4.82;1.50;;;;;;;;;;5015410;28;20034;-76
2022/07/04 03:05:34;;;;;;;4.30;1.30;;;;;;;;;;5015963;28;20500;-77
2022/07/04 03:08:00;;;;;;;3.17;1.38;;;;;;;;;;5015746;28;20053;-76
2022/07/04 03:10:25;;;;;;;2.03;1.30;;;;;;;;;;5016473;28;20025;-77
2022/07/04 03:12:50;;;;;;;1.58;1.20;;;;;;;;;;5015671;28;20472;-77
2022/07/04 03:15:16;;;;;;;2.75;1.27;;;;;;;;;;5016800;28;20120;-77
2022/07/04 03:17:41;;;;;;;2.40;1.30;;;;;;;;;;4998720;28;20065;-77
2022/07/04 03:20:07;;;;;;;2.72;1.50;;;;;;;;;;5014959;28;20034;-77
2022/07/04 03:22:32;;;;;;;1.70;1.30;;;;;;;;;;5014953;28;20041;-76
2022/07/04 03:24:58;;;;;;;4.28;1.48;;;;;;;;;;5016408;28;20412;-76
2022/07/04 03:27:23;;;;;;;3.10;1.38;;;;;;;;;;5016078;28;20030;-77
2022/07/04 03:29:48;;;;;;;3.08;1.35;;;;;;;;;;5016130;28;20030;-77
2022/07/04 03:32:14;;;;;;;3.25;1.30;;;;;;;;;;4998399;28;20030;-77
2022/07/04 03:34:39;;;;;;;1.67;1.23;;;;;;;;;;5016312;28;20387;-77
2022/07/04 03:37:04;;;;;;;2.10;1.35;;;;;;;;;;5015969;28;20084;-77
2022/07/04 03:39:30;;;;;;;1.75;1.30;;;;;;;;;;5015170;28;20038;-76
2022/07/04 03:41:55;;;;;;;1.92;1.35;;;;;;;;;;5016029;28;20034;-77
2022/07/04 03:44:21;;;;;;;3.13;1.48;;;;;;;;;;5014663;28;20033;-77
2022/07/04 03:46:46;;;;;;;2.47;1.80;;;;;;;;;;4998113;28;20042;-77
2022/07/04 03:49:11;;;;;;;1.98;1.55;;;;;;;;;;5015699;28;20061;-77
2022/07/04 03:51:37;;;;;;;2.65;1.30;;;;;;;;;;5016421;28;20030;-76
2022/07/04 03:54:02;;;;;;;1.80;1.17;;;;;;;;;;5014754;28;20155;-78
2022/07/04 03:56:27;;;;;;;1.52;1.17;;;;;;;;;;5014448;28;20045;-78
2022/07/04 03:58:53;;;;;;;4.78;1.85;;;;;;;;;;5015586;28;20156;-77
2022/07/04 04:01:19;;;;;;;4.30;2.00;;;;;;;;;;5015910;28;20025;-77
2022/07/04 04:06:29;;;;;;;2.80;1.80;;;;;;;;;;5015843;28;20032;-77
2022/07/04 04:08:55;;;;;;;4.18;1.73;;;;;;;;;;5014168;28;20104;-78
2022/07/04 04:11:20;;;;;;;3.38;1.38;;;;;;;;;;5014043;28;20169;-78
2022/07/04 04:13:46;;;;;;;3.75;1.33;;;;;;;;;;5014128;28;20080;-78
2022/07/04 04:16:11;;;;;;;2.45;1.20;;;;;;;;;;4997638;28;20033;-77
2022/07/04 04:18:36;;;;;;;2.22;1.20;;;;;;;;;;4998056;28;20069;-78
2022/07/04 04:21:03;;;;;;;4.03;1.20;;;;;;;;;;5014639;28;20034;-79
2022/07/04 04:23:28;;;;;;;2.03;0.98;;;;;;;;;;5013110;28;20073;-77
2022/07/04 04:25:53;;;;;;;3.00;1.10;;;;;;;;;;4996816;28;20061;-77
2022/07/04 04:28:19;;;;;;;20.95;4.05;;;;;;;;;;5013630;28;20033;-78
2022/07/04 04:30:44;;;;;;;4.35;1.35;;;;;;;;;;5012982;28;20026;-77
2022/07/04 04:33:09;;;;;;;3.03;1.25;;;;;;;;;;4996974;28;20065;-77
2022/07/04 04:35:35;;;;;;;4.28;1.20;;;;;;;;;;5013004;28;20034;-78
2022/07/04 04:38:00;;;;;;;3.00;1.15;;;;;;;;;;5013783;28;20033;-77
2022/07/04 04:40:25;;;;;;;4.30;1.40;;;;;;;;;;5012888;28;20062;-77
2022/07/04 04:42:51;;;;;;;3.80;1.30;;;;;;;;;;5013707;28;20092;-78
2022/07/04 04:45:16;;;;;;;3.60;1.40;;;;;;;;;;4996501;28;20550;-77
2022/07/04 04:47:43;;;;;;;3.75;1.58;;;;;;;;;;5013536;28;20377;-79
2022/07/04 04:50:11;;;;;;;2.47;1.23;;;;;;;;;;5012416;28;20108;-77
2022/07/04 04:52:39;;;;;;;6.93;1.50;;;;;;;;;;5012182;28;20107;-78
2022/07/04 04:55:05;;;;;;;4.93;2.03;;;;;;;;;;5013902;28;20551;-77
2022/07/04 04:57:30;;;;;;;4.28;2.05;;;;;;;;;;4998469;28;20061;-78
2022/07/04 04:59:56;;;;;;;6.25;2.28;;;;;;;;;;5013053;28;20026;-78
2022/07/04 05:02:22;;;;;;;8.23;2.60;;;;;;;;;;5012747;28;20088;-75
2022/07/04 05:04:47;;;;;;;7.47;2.85;;;;;;;;;;4980944;28;20420;-79
2022/07/04 05:07:12;;;;;;;9.00;2.92;;;;;;;;;;5014189;28;20025;-79
2022/07/04 05:09:39;;;;;;;14.73;3.00;;;;;;;;;;4996786;28;20025;-79
2022/07/04 05:12:04;;;;;;;7.53;2.85;;;;;;;;;;5012780;28;20041;-79
2022/07/04 05:14:30;;;;;;;6.15;2.72;;;;;;;;;;4980342;28;20384;-79
2022/07/04 05:16:55;;;;;;;5.68;2.50;;;;;;;;;;4996577;28;20048;-77
2022/07/04 05:19:21;;;;;;;7.15;2.20;;;;;;;;;;5013674;28;20029;-77
2022/07/04 05:21:47;;;;;;;5.70;2.03;;;;;;;;;;4997154;28;20404;-77
2022/07/04 05:24:12;;;;;;;8.50;2.80;;;;;;;;;;5013745;28;20030;-77
2022/07/04 05:26:37;;;;;;;3.60;2.25;;;;;;;;;;5015479;28;20034;-78
2022/07/04 05:29:03;;;;;;;7.40;1.90;;;;;;;;;;5013016;28;20026;-78
2022/07/04 05:31:28;;;;;;;6.03;2.38;;;;;;;;;;5014155;28;20053;-77
2022/07/04 05:33:54;;;;;;;5.43;2.03;;;;;;;;;;5013681;28;20519;-76
2022/07/04 05:36:20;;;;;;;4.78;2.47;;;;;;;;;;4995918;28;20068;-77
2022/07/04 05:38:46;;;;;;;7.85;2.53;;;;;;;;;;5013942;28;20429;-78
2022/07/04 05:41:11;;;;;;;6.78;2.42;;;;;;;;;;5013788;28;20064;-78
2022/07/04 05:43:36;;;;;;;6.20;1.85;;;;;;;;;;5013561;28;20037;-78
2022/07/04 05:46:03;;;;;;;4.95;2.33;;;;;;;;;;5013920;28;20153;-78
2022/07/04 05:48:28;;;;;;;4.85;2.10;;;;;;;;;;4996804;28;20062;-77
2022/07/04 05:50:54;;;;;;;4.55;1.95;;;;;;;;;;5014485;28;20088;-78
2022/07/04 05:53:19;;;;;;;4.30;1.63;;;;;;;;;;5012619;28;20030;-78
2022/07/04 05:55:45;;;;;;;4.63;1.65;;;;;;;;;;5014645;28;20108;-78
2022/07/04 05:58:10;;;;;;;2.33;1.33;;;;;;;;;;5013701;28;20064;-78
2022/07/04 06:00:35;;;;;;;5.55;1.85;;;;;;;;;;5012706;28;20025;-77
2022/07/04 06:03:01;;;;;;;4.47;1.50;;;;;;;;;;5014066;28;20144;-78
2022/07/04 06:05:26;;;;;;;5.00;2.15;;;;;;;;;;5014282;28;20136;-78
2022/07/04 06:07:51;;;;;;;3.63;1.70;;;;;;;;;;5013378;28;20507;-77
2022/07/04 06:10:17;;;;;;;3.00;1.70;;;;;;;;;;5013766;28;20132;-79
2022/07/04 06:12:45;;;;;;;8.45;2.03;;;;;;;;;;5012002;28;20038;-78
2022/07/04 06:15:10;;;;;;;3.95;1.48;;;;;;;;;;5011649;28;20133;-79
2022/07/04 06:17:36;;;;;;;2.55;1.30;;;;;;;;;;5013742;28;20131;-79
2022/07/04 06:20:03;;;;;;;3.65;1.45;;;;;;;;;;5013379;28;20053;-78
2022/07/04 06:22:28;;;;;;;1.55;1.13;;;;;;;;;;5013884;28;20030;-78
2022/07/04 06:24:53;;;;;;;2.42;1.17;;;;;;;;;;5012190;28;20030;-78
2022/07/04 06:27:19;;;;;;;2.80;1.27;;;;;;;;;;5013409;28;20057;-78
2022/07/04 06:29:44;;;;;;;2.90;1.25;;;;;;;;;;5011787;28;20113;-78
2022/07/04 06:32:09;;;;;;;3.80;1.40;;;;;;;;;;5013488;28;20065;-78
2022/07/04 06:37:19;;;;;;;3.33;1.27;;;;;;;;;;5011698;28;20084;-78
2022/07/04 06:39:44;;;;;;;3.13;1.30;;;;;;;;;;5014098;28;20034;-78
2022/07/04 06:42:09;;;;;;;2.40;1.10;;;;;;;;;;5012725;28;20041;-78
2022/07/04 06:44:35;;;;;;;4.65;1.50;;;;;;;;;;4995127;28;20401;-78
2022/07/04 06:47:01;;;;;;;1.75;1.00;;;;;;;;;;4995157;28;20030;-78
2022/07/04 06:49:26;;;;;;;2.65;1.30;;;;;;;;;;5012982;28;20116;-78
2022/07/04 06:51:51;;;;;;;2.45;0.95;;;;;;;;;;5013286;28;20034;-78
2022/07/04 06:54:17;;;;;;;2.00;1.15;;;;;;;;;;4996495;28;20361;-78
2022/07/04 06:56:42;;;;;;;2.97;1.38;;;;;;;;;;5013231;28;20030;-78
2022/07/04 06:59:07;;;;;;;2.53;1.17;;;;;;;;;;5012883;28;20038;-78
2022/07/04 07:01:33;;;;;;;2.10;1.02;;;;;;;;;;5012729;28;20096;-77
2022/07/04 07:03:58;;;;;;;2.53;1.10;;;;;;;;;;5013166;28;20030;-78
2022/07/04 07:06:23;;;;;;;6.72;1.60;;;;;;;;;;5013151;28;20030;-77
2022/07/04 07:08:49;;;;;;;2.67;1.10;;;;;;;;;;5012973;28;20445;-77
2022/07/04 07:11:18;;;;;;;2.08;1.20;;;;;;;;;;5013587;28;20037;-77
2022/07/04 07:13:46;;;;;;;1.98;0.98;;;;;;;;;;5012399;28;20038;-77
2022/07/04 07:16:13;;;;;;;2.50;1.02;;;;;;;;;;5014950;28;20021;-77
2022/07/04 07:18:38;;;;;;;1.08;0.95;;;;;;;;;;5015653;28;20139;-77
2022/07/04 07:21:04;;;;;;;2.20;1.00;;;;;;;;;;5016112;28;20609;-77
2022/07/04 07:23:30;;;;;;;1.75;0.80;;;;;;;;;;5016074;28;20022;-77
2022/07/04 07:25:55;;;;;;;1.60;1.10;;;;;;;;;;5014499;28;20026;-78
2022/07/04 07:28:20;;;;;;;1.67;1.10;;;;;;;;;;5014965;28;20037;-79
2022/07/04 07:30:46;;;;;;;2.38;0.98;;;;;;;;;;5016794;28;20018;-80
2022/07/04 07:33:11;;;;;;;4.95;1.20;;;;;;;;;;4998256;28;20485;-78
2022/07/04 07:35:37;;;;;;;2.45;1.23;;;;;;;;;;5014628;28;20488;-78
2022/07/04 07:38:03;;;;;;;1.67;1.00;;;;;;;;;;5014292;28;20044;-79
2022/07/04 07:40:28;;;;;;;10.98;1.50;;;;;;;;;;5015381;28;20037;-78
2022/07/04 07:42:54;;;;;;;6.05;1.45;;;;;;;;;;5015325;28;20096;-78
2022/07/04 07:45:20;;;;;;;3.63;1.40;;;;;;;;;;5016074;28;20029;-78
2022/07/04 07:47:46;;;;;;;4.03;1.45;;;;;;;;;;4997922;28;20408;-78
2022/07/04 07:50:12;;;;;;;6.00;1.60;;;;;;;;;;5014269;28;20029;-80
2022/07/04 07:52:37;;;;;;;4.10;1.50;;;;;;;;;;5014356;28;20044;-78
2022/07/04 07:55:04;;;;;;;5.32;2.13;;;;;;;;;;5015672;28;20045;-79
2022/07/04 07:57:29;;;;;;;7.22;1.50;;;;;;;;;;5015318;28;20475;-78
2022/07/04 07:59:55;;;;;;;5.32;1.55;;;;;;;;;;5015382;28;20033;-78
2022/07/04 08:04:33;;;;;;;6.07;1.55;;;;;;;;;;5013893;28;20029;-77
2022/07/04 08:05:06;;;;;;;7.88;1.52;;;;;;;;;;5000632;28;20495;-78
2022/07/04 08:07:32;;;;;;;5.65;1.83;;;;;;;;;;5015350;28;20049;-78
2022/07/04 08:09:57;;;;;;;6.30;2.50;;;;;;;;;;5013932;28;20029;-78
2022/07/04 08:12:22;;;;;;;3.08;1.50;;;;;;;;;;4997089;28;20029;-77
2022/07/04 08:14:48;;;;;;;4.68;1.20;;;;;;;;;;5015554;28;20034;-77
2022/07/04 08:17:13;;;;;;;8.18;1.83;;;;;;;;;;5013747;28;20029;-77
2022/07/04 08:19:39;;;;;;;2.88;1.20;;;;;;;;;;5015034;28;20544;-77
2022/07/04 08:22:04;;;;;;;8.77;2.10;;;;;;;;;;5013850;28;20034;-77
2022/07/04 08:24:30;;;;;;;9.13;1.70;;;;;;;;;;4997480;28;20026;-77
2022/07/04 08:26:55;;;;;;;6.63;1.60;;;;;;;;;;5014582;28;20151;-77
2022/07/04 08:29:20;;;;;;;4.70;1.35;;;;;;;;;;5015132;28;20101;-77
2022/07/04 08:31:47;;;;;;;5.55;1.50;;;;;;;;;;5013671;28;20052;-77
2022/07/04 08:34:12;;;;;;;3.50;1.35;;;;;;;;;;4997423;28;20108;-79
2022/07/04 08:36:38;;;;;;;5.80;1.30;;;;;;;;;;5013767;28;20495;-77
2022/07/04 08:39:03;;;;;;;3.30;1.65;;;;;;;;;;5014696;28;20113;-78
2022/07/04 08:41:35;;;;;;;2.97;1.35;;;;;;;;;;5013586;28;20083;-78
2022/07/04 08:44:01;;;;;;;4.00;1.40;;;;;;;;;;4997129;28;20490;-79
2022/07/04 08:46:27;;;;;;;3.42;1.70;;;;;;;;;;5013427;28;20113;-77
2022/07/04 08:48:55;;;;;;;1.52;1.23;;;;;;;;;;5013265;28;20062;-79
2022/07/04 08:51:32;;;;;;;3.53;1.10;;;;;;;;;;5013145;28;20045;-76
2022/07/04 08:53:57;;;;;;;9.45;1.20;;;;;;;;;;4996911;28;20026;-76
2022/07/04 08:59:08;;;;;;;6.20;1.88;;;;;;;;;;5012732;28;20041;-76
2022/07/04 09:01:34;;;;;;;5.40;1.35;;;;;;;;;;4996328;28;20026;-77
2022/07/04 09:04:00;;;;;;;6.05;1.40;;;;;;;;;;5012718;28;20373;-76
2022/07/04 09:06:27;;;;;;;2.92;1.30;;;;;;;;;;5012841;28;20036;-76
2022/07/04 09:08:53;;;;;;;2.40;1.05;;;;;;;;;;4980307;28;20029;-76
2022/07/04 09:11:18;;;;;;;5.68;1.08;;;;;;;;;;5012691;28;20088;-76
2022/07/04 09:13:43;;;;;;;5.40;1.35;;;;;;;;;;5015239;28;20109;-75
2022/07/04 09:16:09;;;;;;;2.70;1.35;;;;;;;;;;5012307;28;20050;-76
2022/07/04 09:18:36;;;;;;;2.97;1.33;;;;;;;;;;5013713;28;20476;-76
2022/07/04 09:21:07;;;;;;;2.28;1.08;;;;;;;;;;5012506;28;20036;-77
2022/07/04 09:23:43;;;;;;;3.95;1.30;;;;;;;;;;5013512;28;20049;-78
2022/07/04 09:26:19;;;;;;;3.13;1.25;;;;;;;;;;5013806;28;20033;-77
2022/07/04 09:28:52;;;;;;;4.00;1.33;;;;;;;;;;5012466;28;20044;-77
2022/07/04 09:31:23;;;;;;;1.75;1.00;;;;;;;;;;5012935;28;20022;-77
2022/07/04 09:33:54;;;;;;;1.98;0.90;;;;;;;;;;5012358;28;20030;-77
2022/07/04 09:36:23;;;;;;;1.65;1.00;;;;;;;;;;5012333;28;20018;-76
2022/07/04 09:39:05;;;;;;;2.50;1.40;;;;;;;;;;5011447;28;20127;-77
2022/07/04 09:41:34;;;;;;;2.08;1.00;;;;;;;;;;5012085;28;20038;-77
2022/07/04 09:44:06;;;;;;;2.13;1.05;;;;;;;;;;5012189;28;20042;-76
2022/07/04 09:46:33;;;;;;;1.98;1.05;;;;;;;;;;5013381;28;20232;-76
2022/07/04 09:48:59;;;;;;;2.22;0.90;;;;;;;;;;5011969;28;20060;-76
2022/07/04 09:51:44;;;;;;;1.73;1.08;;;;;;;;;;5011881;28;20370;-77
2022/07/04 09:54:25;;;;;;;2.92;1.13;;;;;;;;;;4995516;28;20021;-77
2022/07/04 09:56:53;;;;;;;2.90;0.98;;;;;;;;;;5013338;28;20033;-77
2022/07/04 09:59:20;;;;;;;2.13;1.00;;;;;;;;;;4995689;28;20080;-76
2022/07/04 10:01:46;;;;;;;1.67;1.10;;;;;;;;;;5012065;28;20337;-78
2022/07/04 10:04:13;;;;;;;1.33;0.80;;;;;;;;;;5013313;28;20026;-75
2022/07/04 10:06:40;;;;;;;1.55;0.90;;;;;;;;;;5012291;28;20029;-77
2022/07/04 10:09:17;;;;;;;2.47;1.13;;;;;;;;;;5012006;28;20037;-76
2022/07/04 10:11:46;;;;;;;2.30;1.10;;;;;;;;;;5011746;28;20052;-79
2022/07/04 10:14:13;;;;;;;2.35;1.30;;;;;;;;;;5011627;28;20036;-76
2022/07/04 10:16:40;;;;;;;3.80;0.90;;;;;;;;;;5011728;28;20026;-77
2022/07/04 10:19:07;;;;;;;6.40;1.02;;;;;;;;;;4995567;28;20443;-77
2022/07/04 10:21:33;;;;;;;7.95;1.30;;;;;;;;;;5013093;28;20033;-77
2022/07/04 10:23:59;;;;;;;2.38;1.20;;;;;;;;;;5011707;28;20030;-78
2022/07/04 10:26:25;;;;;;;3.08;1.15;;;;;;;;;;4995433;28;20389;-77
2022/07/04 10:28:54;;;;;;;2.88;1.38;;;;;;;;;;5012051;28;20092;-79
2022/07/04 10:31:21;;;;;;;2.72;0.93;;;;;;;;;;5011807;28;20026;-78
2022/07/04 10:33:47;;;;;;;1.63;0.90;;;;;;;;;;5012760;28;20117;-77
2022/07/04 10:36:20;;;;;;;3.47;0.75;;;;;;;;;;5011508;28;20026;-79
2022/07/04 10:38:51;;;;;;;2.75;0.90;;;;;;;;;;5011748;28;20353;-78
2022/07/04 10:41:21;;;;;;;4.35;1.10;;;;;;;;;;5011400;28;20026;-79
2022/07/04 10:44:08;;;;;;;2.33;1.00;;;;;;;;;;4995592;28;20468;-77
2022/07/04 10:46:38;;;;;;;1.85;0.93;;;;;;;;;;5012349;28;20496;-78
2022/07/04 10:49:15;;;;;;;2.67;1.13;;;;;;;;;;5014096;28;20093;-78
2022/07/04 10:51:49;;;;;;;1.92;0.95;;;;;;;;;;5015276;28;20029;-77
2022/07/04 10:54:30;;;;;;;6.43;1.38;;;;;;;;;;4998769;28;20053;-78
2022/07/04 10:57:15;;;;;;;2.92;0.93;;;;;;;;;;5016714;28;20033;-78
2022/07/04 10:59:42;;;;;;;5.25;1.40;;;;;;;;;;5015251;28;20376;-79
2022/07/04 11:02:09;;;;;;;3.22;1.33;;;;;;;;;;5016657;28;20503;-80
2022/07/04 11:05:02;;;;;;;2.63;1.40;;;;;;;;;;5015154;28;20435;-77
2022/07/04 11:07:37;;;;;;;4.00;1.52;;;;;;;;;;5015091;28;20050;-78
2022/07/04 11:12:55;;;;;;;3.13;1.20;;;;;;;;;;5016338;28;20535;-78
2022/07/04 11:15:27;;;;;;;;;;;;;;;;;;5017073;28;20109;-78
2022/07/04 11:17:56;;;;;;;1.85;0.98;;;;;;;;;;5016257;28;20323;-78
2022/07/04 11:20:23;;;;;;;1.65;1.13;;;;;;;;;;5016020;28;20157;-77
2022/07/04 11:22:48;;;;;;;4.63;1.38;;;;;;;;;;5016084;28;20040;-76
2022/07/04 11:25:15;;;;;;;3.53;1.10;;;;;;;;;;5014361;28;20026;-76
2022/07/04 11:27:40;;;;;;;3.03;1.10;;;;;;;;;;4998221;28;20022;-76
2022/07/04 11:30:07;;;;;;;2.35;1.10;;;;;;;;;;5014625;28;20028;-76
2022/07/04 11:32:34;;;;;;;2.40;0.90;;;;;;;;;;4997762;28;20084;-76
2022/07/04 11:35:00;;;;;;;2.88;1.20;;;;;;;;;;5015500;28;20432;-76
2022/07/04 11:37:26;;;;;;;2.13;1.20;;;;;;;;;;5015497;28;20030;-76
2022/07/04 11:39:52;;;;;;;0.98;0.90;;;;;;;;;;5014304;28;20034;-76
2022/07/04 11:45:05;;;;;;;1.52;1.00;;;;;;;;;;5016505;28;20041;-76
2022/07/04 11:47:41;;;;;;;0.90;0.90;;;;;;;;;;5016186;28;20488;-78
2022/07/04 11:50:09;;;;;;;0.82;0.80;;;;;;;;;;4998245;28;20022;-76
2022/07/04 11:52:37;;;;;;;1.55;0.90;;;;;;;;;;5014559;28;20029;-76
2022/07/04 11:55:04;;;;;;;1.42;0.93;;;;;;;;;;5015349;28;20022;-76
2022/07/04 11:57:34;;;;;;;1.63;1.10;;;;;;;;;;4997713;28;20076;-76
2022/07/04 12:00:08;;;;;;;0.95;0.85;;;;;;;;;;5013491;28;20075;-76
2022/07/04 12:02:33;;;;;;;0.80;0.80;;;;;;;;;;5015959;28;20022;-76
2022/07/04 12:05:01;;;;;;;1.95;0.85;;;;;;;;;;5016348;28;20041;-77
2022/07/04 12:07:27;;;;;;;1.58;0.93;;;;;;;;;;5016334;28;20472;-77
2022/07/04 12:09:54;;;;;;;1.25;0.90;;;;;;;;;;5014336;28;20029;-78
2022/07/04 12:12:21;;;;;;;2.90;1.00;;;;;;;;;;5014010;28;20145;-77
2022/07/04 12:15:01;;;;;;;1.02;0.90;;;;;;;;;;5014005;28;20472;-78
2022/07/04 12:17:34;;;;;;;1.00;0.90;;;;;;;;;;5013617;28;20037;-78
2022/07/04 12:20:12;;;;;;;2.83;0.90;;;;;;;;;;4997129;28;20116;-78
2022/07/04 12:22:39;;;;;;;1.15;0.90;;;;;;;;;;4997355;28;20160;-78
2022/07/04 12:25:07;;;;;;;2.05;1.13;;;;;;;;;;5013692;28;20025;-77
2022/07/04 12:27:32;;;;;;;3.80;1.20;;;;;;;;;;5012375;28;20123;-77
2022/07/04 12:29:59;;;;;;;4.00;1.02;;;;;;;;;;4996719;28;20175;-77
2022/07/04 12:32:44;;;;;;;1.98;1.23;;;;;;;;;;4999875;28;20514;-77
2022/07/04 12:35:09;;;;;;;1.45;0.80;;;;;;;;;;5003409;28;20105;-77
2022/07/04 12:37:35;;;;;;;3.40;1.00;;;;;;;;;;5014226;28;20196;-77
2022/07/04 12:40:07;;;;;;;1.33;0.88;;;;;;;;;;5014609;28;20030;-77
2022/07/04 12:42:32;;;;;;;1.45;0.90;;;;;;;;;;5014063;28;20033;-79
2022/07/04 12:45:05;;;;;;;1.33;0.93;;;;;;;;;;5013126;28;20187;-78
2022/07/04 12:47:30;;;;;;;0.80;0.73;;;;;;;;;;5013265;28;20050;-77
2022/07/04 12:49:56;;;;;;;1.27;0.90;;;;;;;;;;5014574;28;20128;-77
2022/07/04 12:52:27;;;;;;;2.53;0.85;;;;;;;;;;5012662;28;20030;-77
2022/07/04 12:55:07;;;;;;;1.23;0.90;;;;;;;;;;5013037;28;20022;-77
2022/07/04 12:57:32;;;;;;;2.65;0.85;;;;;;;;;;5012731;28;20105;-77
2022/07/04 12:59:57;;;;;;;0.93;0.88;;;;;;;;;;5014773;28;20054;-78
2022/07/04 13:02:23;;;;;;;3.25;0.90;;;;;;;;;;5014280;28;20030;-78
2022/07/04 13:04:48;;;;;;;1.65;1.00;;;;;;;;;;4997948;28;20085;-79
2022/07/04 13:07:16;;;;;;;3.00;0.98;;;;;;;;;;5016044;28;20034;-79
2022/07/04 13:09:43;;;;;;;4.88;1.10;;;;;;;;;;5016649;28;20034;-79
2022/07/04 13:12:24;;;;;;;4.35;1.35;;;;;;;;;;5014018;28;20026;-79
2022/07/04 13:14:54;;;;;;;3.47;1.10;;;;;;;;;;5013784;28;20040;-79
2022/07/04 13:17:21;;;;;;;0.88;0.88;;;;;;;;;;4996510;28;20036;-80
2022/07/04 13:19:46;;;;;;;2.30;1.08;;;;;;;;;;5014135;28;20030;-80
2022/07/04 13:22:12;;;;;;;3.20;0.82;;;;;;;;;;5012693;28;20471;-79
2022/07/04 13:24:37;;;;;;;4.78;1.23;;;;;;;;;;5013620;28;20034;-80
2022/07/04 13:27:03;;;;;;;0.85;0.80;;;;;;;;;;5013128;28;20044;-80
2022/07/04 13:29:28;;;;;;;2.03;0.85;;;;;;;;;;5012480;28;20037;-80
2022/07/04 13:31:54;;;;;;;3.25;0.80;;;;;;;;;;4996273;28;20038;-79
2022/07/04 13:34:19;;;;;;;1.45;0.90;;;;;;;;;;5012628;28;20034;-77
2022/07/04 13:36:45;;;;;;;1.35;1.08;;;;;;;;;;5012596;28;20392;-78
2022/07/04 13:39:11;;;;;;;3.20;1.08;;;;;;;;;;5012474;28;20022;-78
2022/07/04 13:41:36;;;;;;;2.42;1.02;;;;;;;;;;5012229;28;20045;-77
2022/07/04 13:44:03;;;;;;;3.75;1.13;;;;;;;;;;5013073;28;20038;-77
2022/07/04 13:46:28;;;;;;;1.05;0.95;;;;;;;;;;5013364;28;20065;-77
2022/07/04 13:48:54;;;;;;;2.00;1.20;;;;;;;;;;4997122;28;20061;-77
2022/07/04 13:51:19;;;;;;;2.22;0.82;;;;;;;;;;5014729;28;20038;-77
2022/07/04 13:53:45;;;;;;;5.75;1.20;;;;;;;;;;5012638;28;20061;-77
2022/07/04 13:56:10;;;;;;;1.02;0.90;;;;;;;;;;5014162;28;20034;-77
2022/07/04 13:58:35;;;;;;;2.35;1.27;;;;;;;;;;5014396;28;20037;-77
2022/07/04 14:01:01;;;;;;;4.85;1.40;;;;;;;;;;4980523;28;20033;-77
2022/07/04 14:03:26;;;;;;;1.88;0.90;;;;;;;;;;5014018;28;20025;-77
2022/07/04 14:05:52;;;;;;;3.70;1.00;;;;;;;;;;5012844;28;20037;-77
2022/07/04 14:08:17;;;;;;;1.60;0.90;;;;;;;;;;4995839;28;20030;-77
2022/07/04 14:10:42;;;;;;;1.98;0.85;;;;;;;;;;5016009;28;20053;-79
2022/07/04 14:13:08;;;;;;;1.60;1.00;;;;;;;;;;5013081;28;20080;-77
2022/07/04 14:15:33;;;;;;;2.33;0.80;;;;;;;;;;5013582;28;20068;-78
2022/07/04 14:17:59;;;;;;;1.77;1.17;;;;;;;;;;5013344;28;20050;-76
2022/07/04 14:20:24;;;;;;;2.65;1.00;;;;;;;;;;5013155;28;20029;-78
2022/07/04 14:22:49;;;;;;;3.70;1.02;;;;;;;;;;5013448;28;20030;-77
2022/07/04 14:25:15;;;;;;;2.55;0.80;;;;;;;;;;5012233;28;20038;-77
2022/07/04 14:27:40;;;;;;;0.98;0.80;;;;;;;;;;5014204;28;20072;-76
2022/07/04 14:30:06;;;;;;;1.30;0.82;;;;;;;;;;5014701;28;20022;-76
2022/07/04 14:32:32;;;;;;;1.50;0.80;;;;;;;;;;5016330;28;20543;-79
2022/07/04 14:34:57;;;;;;;1.25;0.88;;;;;;;;;;5015495;28;20068;-76
2022/07/04 14:37:22;;;;;;;1.65;0.80;;;;;;;;;;5012125;28;20428;-76
2022/07/04 14:39:48;;;;;;;1.17;0.90;;;;;;;;;;5012957;28;20484;-77
2022/07/04 14:42:14;;;;;;;1.42;0.90;;;;;;;;;;5012280;28;20069;-77
2022/07/04 14:44:39;;;;;;;1.75;1.00;;;;;;;;;;5013769;28;20048;-78
2022/07/04 14:47:05;;;;;;;2.55;1.00;;;;;;;;;;4995837;28;20041;-78
2022/07/04 14:49:31;;;;;;;2.72;0.93;;;;;;;;;;5012605;28;20073;-78
2022/07/04 14:51:59;;;;;;;1.75;0.90;;;;;;;;;;4995595;28;20034;-78
2022/07/04 14:54:25;;;;;;;0.95;0.80;;;;;;;;;;5012511;28;20048;-77
2022/07/04 14:56:50;;;;;;;1.33;1.23;;;;;;;;;;4995405;28;20423;-78
2022/07/04 14:59:16;;;;;;;3.58;1.17;;;;;;;;;;5013509;28;20037;-77